sensor_id;sensor_type;location;lat;lon;timestamp;P1;durP1;ratioP1;P2;durP2;ratioP2
36745;SDS011;22715;52.182;21.206;2023-05-02T00:00:09;6.57;;;5.28;;
36745;SDS011;22715;52.182;21.206;2023-05-02T00:02:35;11.95;;;6.53;;
36745;SDS011;22715;52.182;21.206;2023-05-02T00:05:00;11.38;;;6.78;;
36745;SDS011;22715;52.182;21.206;2023-05-02T00:07:26;16.25;;;8.60;;
36745;SDS011;22715;52.182;21.206;2023-05-02T00:09:51;14.57;;;6.88;;
36745;SDS011;22715;52.182;21.206;2023-05-02T00:12:16;17.50;;;6.22;;
36745;SDS011;22715;52.182;21.206;2023-05-02T00:14:43;14.10;;;4.35;;
36745;SDS011;22715;52.182;21.206;2023-05-02T00:17:15;7.15;;;4.97;;
36745;SDS011;22715;52.182;21.206;2023-05-02T00:19:41;5.82;;;4.50;;
36745;SDS011;22715;52.182;21.206;2023-05-02T00:22:08;6.75;;;3.80;;
36745;SDS011;22715;52.182;21.206;2023-05-02T00:24:34;7.80;;;4.30;;
36745;SDS011;22715;52.182;21.206;2023-05-02T00:27:01;12.85;;;4.82;;
36745;SDS011;22715;52.182;21.206;2023-05-02T00:29:30;10.25;;;4.90;;
36745;SDS011;22715;52.182;21.206;2023-05-02T00:31:56;13.25;;;4.07;;
36745;SDS011;22715;52.182;21.206;2023-05-02T00:34:22;6.35;;;3.65;;
36745;SDS011;22715;52.182;21.206;2023-05-02T00:36:47;6.97;;;4.78;;
36745;SDS011;22715;52.182;21.206;2023-05-02T00:39:13;6.78;;;3.75;;
36745;SDS011;22715;52.182;21.206;2023-05-02T00:41:39;9.23;;;3.65;;
36745;SDS011;22715;52.182;21.206;2023-05-02T00:44:04;5.57;;;3.38;;
36745;SDS011;22715;52.182;21.206;2023-05-02T00:46:32;3.88;;;3.03;;
36745;SDS011;22715;52.182;21.206;2023-05-02T00:48:57;7.88;;;4.03;;
36745;SDS011;22715;52.182;21.206;2023-05-02T00:51:23;6.53;;;4.13;;
36745;SDS011;22715;52.182;21.206;2023-05-02T00:53:51;6.28;;;2.97;;
36745;SDS011;22715;52.182;21.206;2023-05-02T00:56:17;8.30;;;3.30;;
36745;SDS011;22715;52.182;21.206;2023-05-02T00:58:52;7.70;;;3.97;;
36745;SDS011;22715;52.182;21.206;2023-05-02T01:01:27;6.72;;;3.72;;
36745;SDS011;22715;52.182;21.206;2023-05-02T01:06:26;5.32;;;3.65;;
36745;SDS011;22715;52.182;21.206;2023-05-02T01:11:28;6.55;;;3.33;;
36745;SDS011;22715;52.182;21.206;2023-05-02T01:14:00;6.25;;;3.15;;
36745;SDS011;22715;52.182;21.206;2023-05-02T01:16:29;7.30;;;3.75;;
36745;SDS011;22715;52.182;21.206;2023-05-02T01:18:55;5.95;;;3.17;;
36745;SDS011;22715;52.182;21.206;2023-05-02T01:21:22;8.95;;;3.92;;
36745;SDS011;22715;52.182;21.206;2023-05-02T01:23:56;8.23;;;3.05;;
36745;SDS011;22715;52.182;21.206;2023-05-02T01:26:35;6.57;;;2.97;;
36745;SDS011;22715;52.182;21.206;2023-05-02T01:29:05;4.32;;;3.08;;
36745;SDS011;22715;52.182;21.206;2023-05-02T01:31:35;10.80;;;4.45;;
36745;SDS011;22715;52.182;21.206;2023-05-02T01:34:08;6.37;;;3.43;;
36745;SDS011;22715;52.182;21.206;2023-05-02T01:36:46;5.05;;;3.10;;
36745;SDS011;22715;52.182;21.206;2023-05-02T01:39:19;5.30;;;3.28;;
36745;SDS011;22715;52.182;21.206;2023-05-02T01:41:46;4.47;;;3.17;;
36745;SDS011;22715;52.182;21.206;2023-05-02T01:44:12;5.32;;;2.85;;
36745;SDS011;22715;52.182;21.206;2023-05-02T01:46:39;7.00;;;3.60;;
36745;SDS011;22715;52.182;21.206;2023-05-02T01:49:06;8.18;;;3.55;;
36745;SDS011;22715;52.182;21.206;2023-05-02T01:51:34;3.45;;;2.38;;
36745;SDS011;22715;52.182;21.206;2023-05-02T01:54:04;5.18;;;3.58;;
36745;SDS011;22715;52.182;21.206;2023-05-02T01:56:31;7.93;;;2.83;;
36745;SDS011;22715;52.182;21.206;2023-05-02T01:58:56;5.82;;;3.47;;
36745;SDS011;22715;52.182;21.206;2023-05-02T02:01:23;7.85;;;3.00;;
36745;SDS011;22715;52.182;21.206;2023-05-02T02:03:52;7.22;;;3.75;;
36745;SDS011;22715;52.182;21.206;2023-05-02T02:06:18;6.30;;;3.38;;
36745;SDS011;22715;52.182;21.206;2023-05-02T02:08:45;5.05;;;2.97;;
36745;SDS011;22715;52.182;21.206;2023-05-02T02:11:11;6.07;;;4.32;;
36745;SDS011;22715;52.182;21.206;2023-05-02T02:13:38;6.30;;;2.78;;
36745;SDS011;22715;52.182;21.206;2023-05-02T02:16:03;5.13;;;3.38;;
36745;SDS011;22715;52.182;21.206;2023-05-02T02:18:31;5.43;;;3.50;;
36745;SDS011;22715;52.182;21.206;2023-05-02T02:20:59;6.27;;;4.10;;
36745;SDS011;22715;52.182;21.206;2023-05-02T02:23:25;6.85;;;3.15;;
36745;SDS011;22715;52.182;21.206;2023-05-02T02:25:52;5.15;;;2.67;;
36745;SDS011;22715;52.182;21.206;2023-05-02T02:28:19;6.28;;;2.75;;
36745;SDS011;22715;52.182;21.206;2023-05-02T02:30:44;4.05;;;2.88;;
36745;SDS011;22715;52.182;21.206;2023-05-02T02:33:10;11.18;;;2.85;;
36745;SDS011;22715;52.182;21.206;2023-05-02T02:35:39;7.35;;;3.83;;
36745;SDS011;22715;52.182;21.206;2023-05-02T02:40:55;7.40;;;3.40;;
36745;SDS011;22715;52.182;21.206;2023-05-02T02:45:54;8.10;;;3.38;;
36745;SDS011;22715;52.182;21.206;2023-05-02T02:48:28;5.68;;;3.45;;
36745;SDS011;22715;52.182;21.206;2023-05-02T02:51:10;3.70;;;2.67;;
36745;SDS011;22715;52.182;21.206;2023-05-02T02:56:19;7.72;;;3.03;;
36745;SDS011;22715;52.182;21.206;2023-05-02T02:59:22;6.68;;;2.85;;
36745;SDS011;22715;52.182;21.206;2023-05-02T03:01:38;5.07;;;3.95;;
36745;SDS011;22715;52.182;21.206;2023-05-02T03:04:04;9.30;;;3.33;;
36745;SDS011;22715;52.182;21.206;2023-05-02T03:06:32;6.20;;;3.25;;
36745;SDS011;22715;52.182;21.206;2023-05-02T03:08:58;6.88;;;3.33;;
36745;SDS011;22715;52.182;21.206;2023-05-02T03:11:23;4.25;;;2.35;;
36745;SDS011;22715;52.182;21.206;2023-05-02T03:13:48;7.35;;;2.83;;
36745;SDS011;22715;52.182;21.206;2023-05-02T03:16:24;8.63;;;2.95;;
36745;SDS011;22715;52.182;21.206;2023-05-02T03:18:52;5.47;;;2.35;;
36745;SDS011;22715;52.182;21.206;2023-05-02T03:21:18;7.57;;;3.00;;
36745;SDS011;22715;52.182;21.206;2023-05-02T03:23:46;6.38;;;2.80;;
36745;SDS011;22715;52.182;21.206;2023-05-02T03:26:12;6.72;;;2.60;;
36745;SDS011;22715;52.182;21.206;2023-05-02T03:28:37;6.63;;;2.92;;
36745;SDS011;22715;52.182;21.206;2023-05-02T03:31:03;6.00;;;2.45;;
36745;SDS011;22715;52.182;21.206;2023-05-02T03:33:28;7.90;;;2.90;;
36745;SDS011;22715;52.182;21.206;2023-05-02T03:35:56;8.45;;;3.83;;
36745;SDS011;22715;52.182;21.206;2023-05-02T03:38:21;3.90;;;2.70;;
36745;SDS011;22715;52.182;21.206;2023-05-02T03:40:47;8.13;;;3.03;;
36745;SDS011;22715;52.182;21.206;2023-05-02T03:43:12;6.65;;;2.60;;
36745;SDS011;22715;52.182;21.206;2023-05-02T03:45:38;9.15;;;2.63;;
36745;SDS011;22715;52.182;21.206;2023-05-02T03:48:03;3.95;;;2.53;;
36745;SDS011;22715;52.182;21.206;2023-05-02T03:50:28;8.45;;;3.13;;
36745;SDS011;22715;52.182;21.206;2023-05-02T03:52:54;4.38;;;3.10;;
36745;SDS011;22715;52.182;21.206;2023-05-02T03:55:19;8.05;;;3.65;;
36745;SDS011;22715;52.182;21.206;2023-05-02T03:57:45;4.15;;;2.72;;
36745;SDS011;22715;52.182;21.206;2023-05-02T04:00:10;8.50;;;3.42;;
36745;SDS011;22715;52.182;21.206;2023-05-02T04:02:36;6.47;;;2.80;;
36745;SDS011;22715;52.182;21.206;2023-05-02T04:05:01;6.32;;;3.75;;
36745;SDS011;22715;52.182;21.206;2023-05-02T04:07:26;3.95;;;2.35;;
36745;SDS011;22715;52.182;21.206;2023-05-02T04:09:52;7.97;;;4.35;;
36745;SDS011;22715;52.182;21.206;2023-05-02T04:12:17;5.63;;;3.05;;
36745;SDS011;22715;52.182;21.206;2023-05-02T04:14:43;7.57;;;3.45;;
36745;SDS011;22715;52.182;21.206;2023-05-02T04:17:08;5.88;;;3.03;;
36745;SDS011;22715;52.182;21.206;2023-05-02T04:19:33;7.45;;;3.58;;
36745;SDS011;22715;52.182;21.206;2023-05-02T04:21:59;5.53;;;3.38;;
36745;SDS011;22715;52.182;21.206;2023-05-02T04:24:24;4.65;;;3.20;;
36745;SDS011;22715;52.182;21.206;2023-05-02T04:26:50;5.22;;;3.20;;
36745;SDS011;22715;52.182;21.206;2023-05-02T04:29:15;6.32;;;4.22;;
36745;SDS011;22715;52.182;21.206;2023-05-02T04:31:41;7.72;;;3.90;;
36745;SDS011;22715;52.182;21.206;2023-05-02T04:34:06;6.70;;;3.50;;
36745;SDS011;22715;52.182;21.206;2023-05-02T04:36:31;8.02;;;3.45;;
36745;SDS011;22715;52.182;21.206;2023-05-02T04:38:58;11.35;;;3.58;;
36745;SDS011;22715;52.182;21.206;2023-05-02T04:41:25;6.95;;;3.88;;
36745;SDS011;22715;52.182;21.206;2023-05-02T04:43:51;7.88;;;4.00;;
36745;SDS011;22715;52.182;21.206;2023-05-02T04:46:17;8.13;;;3.53;;
36745;SDS011;22715;52.182;21.206;2023-05-02T04:48:42;7.25;;;3.30;;
36745;SDS011;22715;52.182;21.206;2023-05-02T04:51:08;5.45;;;2.83;;
36745;SDS011;22715;52.182;21.206;2023-05-02T04:53:37;5.22;;;3.25;;
36745;SDS011;22715;52.182;21.206;2023-05-02T04:56:07;8.27;;;2.78;;
36745;SDS011;22715;52.182;21.206;2023-05-02T04:58:33;5.32;;;2.90;;
36745;SDS011;22715;52.182;21.206;2023-05-02T05:01:04;5.53;;;3.15;;
36745;SDS011;22715;52.182;21.206;2023-05-02T05:03:30;3.65;;;2.45;;
36745;SDS011;22715;52.182;21.206;2023-05-02T05:05:57;6.38;;;3.90;;
36745;SDS011;22715;52.182;21.206;2023-05-02T05:08:22;6.65;;;3.75;;
36745;SDS011;22715;52.182;21.206;2023-05-02T05:10:51;10.43;;;3.60;;
36745;SDS011;22715;52.182;21.206;2023-05-02T05:13:16;7.72;;;4.25;;
36745;SDS011;22715;52.182;21.206;2023-05-02T05:15:42;5.05;;;3.53;;
36745;SDS011;22715;52.182;21.206;2023-05-02T05:18:08;6.88;;;3.65;;
36745;SDS011;22715;52.182;21.206;2023-05-02T05:20:36;8.40;;;3.83;;
36745;SDS011;22715;52.182;21.206;2023-05-02T05:23:02;6.82;;;3.65;;
36745;SDS011;22715;52.182;21.206;2023-05-02T05:25:27;7.35;;;3.70;;
36745;SDS011;22715;52.182;21.206;2023-05-02T05:27:53;7.78;;;3.53;;
36745;SDS011;22715;52.182;21.206;2023-05-02T05:30:20;6.30;;;3.58;;
36745;SDS011;22715;52.182;21.206;2023-05-02T05:32:45;7.47;;;4.13;;
36745;SDS011;22715;52.182;21.206;2023-05-02T05:35:11;7.20;;;2.95;;
36745;SDS011;22715;52.182;21.206;2023-05-02T05:37:37;7.10;;;4.20;;
36745;SDS011;22715;52.182;21.206;2023-05-02T05:40:07;6.30;;;3.45;;
36745;SDS011;22715;52.182;21.206;2023-05-02T05:42:33;8.27;;;3.63;;
36745;SDS011;22715;52.182;21.206;2023-05-02T05:45:01;11.15;;;3.58;;
36745;SDS011;22715;52.182;21.206;2023-05-02T05:47:27;6.43;;;3.53;;
36745;SDS011;22715;52.182;21.206;2023-05-02T05:49:53;8.25;;;4.03;;
36745;SDS011;22715;52.182;21.206;2023-05-02T05:52:18;4.55;;;3.13;;
36745;SDS011;22715;52.182;21.206;2023-05-02T05:54:43;8.40;;;3.70;;
36745;SDS011;22715;52.182;21.206;2023-05-02T05:57:09;6.40;;;3.63;;
36745;SDS011;22715;52.182;21.206;2023-05-02T05:59:34;7.85;;;4.00;;
36745;SDS011;22715;52.182;21.206;2023-05-02T06:02:00;6.65;;;2.65;;
36745;SDS011;22715;52.182;21.206;2023-05-02T06:04:25;6.63;;;3.58;;
36745;SDS011;22715;52.182;21.206;2023-05-02T06:09:55;5.20;;;3.08;;
36745;SDS011;22715;52.182;21.206;2023-05-02T06:12:21;6.32;;;2.92;;
36745;SDS011;22715;52.182;21.206;2023-05-02T06:14:46;5.60;;;3.42;;
36745;SDS011;22715;52.182;21.206;2023-05-02T06:17:11;10.13;;;3.50;;
36745;SDS011;22715;52.182;21.206;2023-05-02T06:19:37;8.25;;;3.17;;
36745;SDS011;22715;52.182;21.206;2023-05-02T06:22:03;5.20;;;3.63;;
36745;SDS011;22715;52.182;21.206;2023-05-02T06:24:28;6.78;;;3.20;;
36745;SDS011;22715;52.182;21.206;2023-05-02T06:26:53;6.60;;;3.10;;
36745;SDS011;22715;52.182;21.206;2023-05-02T06:29:19;7.35;;;3.05;;
36745;SDS011;22715;52.182;21.206;2023-05-02T06:31:45;6.30;;;3.05;;
36745;SDS011;22715;52.182;21.206;2023-05-02T06:34:11;6.25;;;3.28;;
36745;SDS011;22715;52.182;21.206;2023-05-02T06:36:36;4.22;;;2.75;;
36745;SDS011;22715;52.182;21.206;2023-05-02T06:39:02;5.32;;;3.33;;
36745;SDS011;22715;52.182;21.206;2023-05-02T06:41:27;8.82;;;3.90;;
36745;SDS011;22715;52.182;21.206;2023-05-02T06:43:52;4.50;;;3.00;;
36745;SDS011;22715;52.182;21.206;2023-05-02T06:46:18;4.90;;;2.83;;
36745;SDS011;22715;52.182;21.206;2023-05-02T06:48:44;5.03;;;3.10;;
36745;SDS011;22715;52.182;21.206;2023-05-02T06:51:10;4.68;;;2.97;;
36745;SDS011;22715;52.182;21.206;2023-05-02T06:53:35;4.35;;;2.92;;
36745;SDS011;22715;52.182;21.206;2023-05-02T06:56:01;3.97;;;2.78;;
36745;SDS011;22715;52.182;21.206;2023-05-02T06:58:27;4.30;;;2.85;;
36745;SDS011;22715;52.182;21.206;2023-05-02T07:00:54;2.97;;;2.70;;
36745;SDS011;22715;52.182;21.206;2023-05-02T07:03:19;8.35;;;3.63;;
36745;SDS011;22715;52.182;21.206;2023-05-02T07:05:44;3.75;;;2.63;;
36745;SDS011;22715;52.182;21.206;2023-05-02T07:08:13;8.27;;;4.32;;
36745;SDS011;22715;52.182;21.206;2023-05-02T07:10:40;4.05;;;2.83;;
36745;SDS011;22715;52.182;21.206;2023-05-02T07:13:05;4.18;;;3.15;;
36745;SDS011;22715;52.182;21.206;2023-05-02T07:15:31;8.48;;;3.25;;
36745;SDS011;22715;52.182;21.206;2023-05-02T07:17:56;4.00;;;3.45;;
36745;SDS011;22715;52.182;21.206;2023-05-02T07:20:22;5.90;;;3.30;;
36745;SDS011;22715;52.182;21.206;2023-05-02T07:22:48;4.80;;;2.30;;
36745;SDS011;22715;52.182;21.206;2023-05-02T07:25:13;5.88;;;2.83;;
36745;SDS011;22715;52.182;21.206;2023-05-02T07:27:39;4.65;;;2.72;;
36745;SDS011;22715;52.182;21.206;2023-05-02T07:30:04;4.40;;;3.22;;
36745;SDS011;22715;52.182;21.206;2023-05-02T07:32:30;4.03;;;2.55;;
36745;SDS011;22715;52.182;21.206;2023-05-02T07:34:55;6.30;;;3.28;;
36745;SDS011;22715;52.182;21.206;2023-05-02T07:37:21;4.28;;;2.67;;
36745;SDS011;22715;52.182;21.206;2023-05-02T07:39:46;4.03;;;2.15;;
36745;SDS011;22715;52.182;21.206;2023-05-02T07:42:12;4.93;;;2.70;;
36745;SDS011;22715;52.182;21.206;2023-05-02T07:44:37;5.10;;;3.38;;
36745;SDS011;22715;52.182;21.206;2023-05-02T07:47:03;4.15;;;2.85;;
36745;SDS011;22715;52.182;21.206;2023-05-02T07:49:28;5.03;;;2.25;;
36745;SDS011;22715;52.182;21.206;2023-05-02T07:51:55;4.07;;;1.88;;
36745;SDS011;22715;52.182;21.206;2023-05-02T07:54:20;3.88;;;2.58;;
36745;SDS011;22715;52.182;21.206;2023-05-02T07:56:46;2.03;;;1.70;;
36745;SDS011;22715;52.182;21.206;2023-05-02T07:59:12;4.28;;;2.72;;
36745;SDS011;22715;52.182;21.206;2023-05-02T08:01:37;2.25;;;2.03;;
36745;SDS011;22715;52.182;21.206;2023-05-02T08:04:03;3.85;;;2.45;;
36745;SDS011;22715;52.182;21.206;2023-05-02T08:06:28;3.60;;;1.92;;
36745;SDS011;22715;52.182;21.206;2023-05-02T08:08:53;3.88;;;2.00;;
36745;SDS011;22715;52.182;21.206;2023-05-02T08:11:19;5.00;;;1.63;;
36745;SDS011;22715;52.182;21.206;2023-05-02T08:13:46;5.20;;;1.83;;
36745;SDS011;22715;52.182;21.206;2023-05-02T08:16:12;9.30;;;1.88;;
36745;SDS011;22715;52.182;21.206;2023-05-02T08:18:37;2.70;;;2.30;;
36745;SDS011;22715;52.182;21.206;2023-05-02T08:21:02;3.70;;;2.35;;
36745;SDS011;22715;52.182;21.206;2023-05-02T08:23:31;2.10;;;1.90;;
36745;SDS011;22715;52.182;21.206;2023-05-02T08:25:59;3.10;;;1.80;;
36745;SDS011;22715;52.182;21.206;2023-05-02T08:28:24;1.98;;;1.77;;
36745;SDS011;22715;52.182;21.206;2023-05-02T08:30:53;4.78;;;1.85;;
36745;SDS011;22715;52.182;21.206;2023-05-02T08:33:19;2.28;;;1.70;;
36745;SDS011;22715;52.182;21.206;2023-05-02T08:35:44;5.03;;;1.85;;
36745;SDS011;22715;52.182;21.206;2023-05-02T08:38:16;3.55;;;2.45;;
36745;SDS011;22715;52.182;21.206;2023-05-02T08:40:44;7.72;;;2.05;;
36745;SDS011;22715;52.182;21.206;2023-05-02T08:43:16;4.43;;;1.85;;
36745;SDS011;22715;52.182;21.206;2023-05-02T08:45:45;4.60;;;1.90;;
36745;SDS011;22715;52.182;21.206;2023-05-02T08:48:16;3.72;;;2.15;;
36745;SDS011;22715;52.182;21.206;2023-05-02T08:50:42;2.33;;;1.60;;
36745;SDS011;22715;52.182;21.206;2023-05-02T08:53:09;3.00;;;1.73;;
36745;SDS011;22715;52.182;21.206;2023-05-02T08:55:36;3.33;;;1.98;;
36745;SDS011;22715;52.182;21.206;2023-05-02T08:58:05;4.93;;;2.63;;
36745;SDS011;22715;52.182;21.206;2023-05-02T09:00:31;2.55;;;1.77;;
36745;SDS011;22715;52.182;21.206;2023-05-02T09:03:10;4.38;;;1.75;;
36745;SDS011;22715;52.182;21.206;2023-05-02T09:05:38;7.05;;;3.00;;
36745;SDS011;22715;52.182;21.206;2023-05-02T09:08:04;4.45;;;2.67;;
36745;SDS011;22715;52.182;21.206;2023-05-02T09:10:29;4.55;;;2.15;;
36745;SDS011;22715;52.182;21.206;2023-05-02T09:12:55;17.00;;;2.78;;
36745;SDS011;22715;52.182;21.206;2023-05-02T09:15:20;3.80;;;3.40;;
36745;SDS011;22715;52.182;21.206;2023-05-02T09:17:46;12.10;;;2.60;;
36745;SDS011;22715;52.182;21.206;2023-05-02T09:20:12;2.72;;;2.10;;
36745;SDS011;22715;52.182;21.206;2023-05-02T09:22:51;4.60;;;2.40;;
36745;SDS011;22715;52.182;21.206;2023-05-02T09:25:20;2.70;;;2.20;;
36745;SDS011;22715;52.182;21.206;2023-05-02T09:27:49;3.10;;;2.03;;
36745;SDS011;22715;52.182;21.206;2023-05-02T09:30:19;4.28;;;1.95;;
36745;SDS011;22715;52.182;21.206;2023-05-02T09:32:45;4.80;;;2.80;;
36745;SDS011;22715;52.182;21.206;2023-05-02T09:35:11;11.05;;;4.05;;
36745;SDS011;22715;52.182;21.206;2023-05-02T09:37:37;3.35;;;2.28;;
36745;SDS011;22715;52.182;21.206;2023-05-02T09:40:06;4.38;;;2.53;;
36745;SDS011;22715;52.182;21.206;2023-05-02T09:42:31;3.45;;;2.35;;
36745;SDS011;22715;52.182;21.206;2023-05-02T09:44:57;3.63;;;2.55;;
36745;SDS011;22715;52.182;21.206;2023-05-02T09:47:25;4.07;;;2.60;;
36745;SDS011;22715;52.182;21.206;2023-05-02T09:49:51;3.90;;;2.63;;
36745;SDS011;22715;52.182;21.206;2023-05-02T09:52:17;3.42;;;2.83;;
36745;SDS011;22715;52.182;21.206;2023-05-02T09:54:45;2.45;;;2.03;;
36745;SDS011;22715;52.182;21.206;2023-05-02T09:57:11;2.65;;;2.13;;
36745;SDS011;22715;52.182;21.206;2023-05-02T09:59:40;2.55;;;2.30;;
36745;SDS011;22715;52.182;21.206;2023-05-02T10:02:05;4.03;;;2.45;;
36745;SDS011;22715;52.182;21.206;2023-05-02T10:04:31;6.57;;;3.63;;
36745;SDS011;22715;52.182;21.206;2023-05-02T10:06:57;3.45;;;3.10;;
36745;SDS011;22715;52.182;21.206;2023-05-02T10:09:23;4.88;;;3.25;;
36745;SDS011;22715;52.182;21.206;2023-05-02T10:11:53;5.13;;;2.70;;
36745;SDS011;22715;52.182;21.206;2023-05-02T10:14:19;5.40;;;2.42;;
36745;SDS011;22715;52.182;21.206;2023-05-02T10:19:22;4.32;;;2.90;;
36745;SDS011;22715;52.182;21.206;2023-05-02T10:21:48;3.22;;;2.78;;
36745;SDS011;22715;52.182;21.206;2023-05-02T10:24:14;3.78;;;3.35;;
36745;SDS011;22715;52.182;21.206;2023-05-02T10:26:43;7.03;;;3.08;;
36745;SDS011;22715;52.182;21.206;2023-05-02T10:29:08;6.72;;;3.47;;
36745;SDS011;22715;52.182;21.206;2023-05-02T10:31:34;5.60;;;2.85;;
36745;SDS011;22715;52.182;21.206;2023-05-02T10:34:01;4.55;;;3.58;;
36745;SDS011;22715;52.182;21.206;2023-05-02T10:36:27;7.35;;;3.60;;
36745;SDS011;22715;52.182;21.206;2023-05-02T10:38:53;8.02;;;3.25;;
36745;SDS011;22715;52.182;21.206;2023-05-02T10:41:19;7.28;;;3.50;;
36745;SDS011;22715;52.182;21.206;2023-05-02T10:43:48;6.53;;;3.83;;
36745;SDS011;22715;52.182;21.206;2023-05-02T10:49:04;4.93;;;3.40;;
36745;SDS011;22715;52.182;21.206;2023-05-02T10:51:34;4.78;;;4.35;;
36745;SDS011;22715;52.182;21.206;2023-05-02T10:54:19;4.72;;;3.20;;
36745;SDS011;22715;52.182;21.206;2023-05-02T10:59:39;5.45;;;3.80;;
36745;SDS011;22715;52.182;21.206;2023-05-02T11:05:06;5.32;;;3.97;;
36745;SDS011;22715;52.182;21.206;2023-05-02T11:07:35;6.13;;;4.00;;
36745;SDS011;22715;52.182;21.206;2023-05-02T11:12:45;5.40;;;3.88;;
36745;SDS011;22715;52.182;21.206;2023-05-02T11:15:11;8.50;;;4.55;;
36745;SDS011;22715;52.182;21.206;2023-05-02T11:20:20;5.90;;;4.15;;
36745;SDS011;22715;52.182;21.206;2023-05-02T11:22:46;7.85;;;4.25;;
36745;SDS011;22715;52.182;21.206;2023-05-02T11:25:27;6.13;;;4.93;;
36745;SDS011;22715;52.182;21.206;2023-05-02T11:27:53;7.45;;;5.28;;
36745;SDS011;22715;52.182;21.206;2023-05-02T11:30:40;6.75;;;4.70;;
36745;SDS011;22715;52.182;21.206;2023-05-02T11:35:31;6.95;;;4.00;;
36745;SDS011;22715;52.182;21.206;2023-05-02T11:37:59;3.80;;;3.45;;
36745;SDS011;22715;52.182;21.206;2023-05-02T11:40:26;6.35;;;3.08;;
36745;SDS011;22715;52.182;21.206;2023-05-02T11:42:52;4.53;;;3.40;;
36745;SDS011;22715;52.182;21.206;2023-05-02T11:45:18;4.43;;;3.97;;
36745;SDS011;22715;52.182;21.206;2023-05-02T11:47:48;6.40;;;4.57;;
36745;SDS011;22715;52.182;21.206;2023-05-02T11:50:14;4.05;;;2.95;;
36745;SDS011;22715;52.182;21.206;2023-05-02T11:52:41;6.30;;;3.90;;
36745;SDS011;22715;52.182;21.206;2023-05-02T11:55:07;5.45;;;3.80;;
36745;SDS011;22715;52.182;21.206;2023-05-02T11:57:33;6.95;;;4.03;;
36745;SDS011;22715;52.182;21.206;2023-05-02T12:00:02;5.72;;;4.30;;
36745;SDS011;22715;52.182;21.206;2023-05-02T12:05:01;5.15;;;3.63;;
36745;SDS011;22715;52.182;21.206;2023-05-02T12:07:45;7.20;;;3.53;;
36745;SDS011;22715;52.182;21.206;2023-05-02T12:10:11;7.80;;;4.80;;
36745;SDS011;22715;52.182;21.206;2023-05-02T12:12:37;7.85;;;5.22;;
36745;SDS011;22715;52.182;21.206;2023-05-02T12:15:04;8.23;;;5.47;;
36745;SDS011;22715;52.182;21.206;2023-05-02T12:17:30;10.20;;;8.88;;
36745;SDS011;22715;52.182;21.206;2023-05-02T12:19:56;5.00;;;4.50;;
36745;SDS011;22715;52.182;21.206;2023-05-02T12:22:22;4.20;;;3.63;;
36745;SDS011;22715;52.182;21.206;2023-05-02T12:24:47;4.80;;;4.05;;
36745;SDS011;22715;52.182;21.206;2023-05-02T12:27:15;5.85;;;3.88;;
36745;SDS011;22715;52.182;21.206;2023-05-02T12:29:43;3.50;;;3.10;;
36745;SDS011;22715;52.182;21.206;2023-05-02T12:32:09;9.48;;;4.32;;
36745;SDS011;22715;52.182;21.206;2023-05-02T12:34:35;5.85;;;4.40;;
36745;SDS011;22715;52.182;21.206;2023-05-02T12:37:01;5.40;;;4.50;;
36745;SDS011;22715;52.182;21.206;2023-05-02T12:39:40;5.25;;;3.88;;
36745;SDS011;22715;52.182;21.206;2023-05-02T12:42:10;5.80;;;3.78;;
36745;SDS011;22715;52.182;21.206;2023-05-02T12:44:36;9.10;;;4.47;;
36745;SDS011;22715;52.182;21.206;2023-05-02T12:47:02;9.55;;;4.80;;
36745;SDS011;22715;52.182;21.206;2023-05-02T12:49:28;8.40;;;5.65;;
36745;SDS011;22715;52.182;21.206;2023-05-02T12:51:53;6.20;;;4.15;;
36745;SDS011;22715;52.182;21.206;2023-05-02T12:54:20;8.05;;;4.57;;
36745;SDS011;22715;52.182;21.206;2023-05-02T12:56:45;6.07;;;4.25;;
36745;SDS011;22715;52.182;21.206;2023-05-02T12:59:24;5.32;;;4.22;;
36745;SDS011;22715;52.182;21.206;2023-05-02T13:01:56;12.15;;;5.95;;
36745;SDS011;22715;52.182;21.206;2023-05-02T13:04:34;6.07;;;5.15;;
36745;SDS011;22715;52.182;21.206;2023-05-02T13:07:00;10.73;;;5.50;;
36745;SDS011;22715;52.182;21.206;2023-05-02T13:09:25;7.68;;;5.88;;
36745;SDS011;22715;52.182;21.206;2023-05-02T13:11:50;9.95;;;5.80;;
36745;SDS011;22715;52.182;21.206;2023-05-02T13:14:18;10.50;;;6.07;;
36745;SDS011;22715;52.182;21.206;2023-05-02T13:16:43;6.97;;;4.72;;
36745;SDS011;22715;52.182;21.206;2023-05-02T13:19:08;6.70;;;5.22;;
36745;SDS011;22715;52.182;21.206;2023-05-02T13:21:37;8.70;;;5.00;;
36745;SDS011;22715;52.182;21.206;2023-05-02T13:24:05;14.63;;;7.40;;
36745;SDS011;22715;52.182;21.206;2023-05-02T13:26:31;8.43;;;4.72;;
36745;SDS011;22715;52.182;21.206;2023-05-02T13:28:59;7.97;;;4.72;;
36745;SDS011;22715;52.182;21.206;2023-05-02T13:31:24;7.25;;;3.80;;
36745;SDS011;22715;52.182;21.206;2023-05-02T13:33:50;7.60;;;3.72;;
36745;SDS011;22715;52.182;21.206;2023-05-02T13:36:15;5.75;;;3.58;;
36745;SDS011;22715;52.182;21.206;2023-05-02T13:38:43;4.53;;;3.38;;
36745;SDS011;22715;52.182;21.206;2023-05-02T13:41:09;13.00;;;5.32;;
36745;SDS011;22715;52.182;21.206;2023-05-02T13:43:34;5.75;;;3.72;;
36745;SDS011;22715;52.182;21.206;2023-05-02T13:45:59;4.50;;;3.88;;
36745;SDS011;22715;52.182;21.206;2023-05-02T13:48:25;6.45;;;3.67;;
36745;SDS011;22715;52.182;21.206;2023-05-02T13:50:51;6.10;;;3.80;;
36745;SDS011;22715;52.182;21.206;2023-05-02T13:53:19;4.90;;;3.67;;
36745;SDS011;22715;52.182;21.206;2023-05-02T13:55:44;5.20;;;4.70;;
36745;SDS011;22715;52.182;21.206;2023-05-02T13:58:10;8.85;;;4.53;;
36745;SDS011;22715;52.182;21.206;2023-05-02T14:00:35;3.78;;;3.28;;
36745;SDS011;22715;52.182;21.206;2023-05-02T14:03:01;10.45;;;4.18;;
36745;SDS011;22715;52.182;21.206;2023-05-02T14:05:30;6.63;;;3.58;;
36745;SDS011;22715;52.182;21.206;2023-05-02T14:07:56;6.78;;;3.75;;
36745;SDS011;22715;52.182;21.206;2023-05-02T14:10:21;6.30;;;3.50;;
36745;SDS011;22715;52.182;21.206;2023-05-02T14:12:46;7.30;;;4.30;;
36745;SDS011;22715;52.182;21.206;2023-05-02T14:15:14;5.18;;;3.85;;
36745;SDS011;22715;52.182;21.206;2023-05-02T14:17:40;4.00;;;3.45;;
36745;SDS011;22715;52.182;21.206;2023-05-02T14:20:05;4.40;;;3.25;;
36745;SDS011;22715;52.182;21.206;2023-05-02T14:22:31;6.15;;;4.05;;
36745;SDS011;22715;52.182;21.206;2023-05-02T14:24:57;5.85;;;3.45;;
36745;SDS011;22715;52.182;21.206;2023-05-02T14:27:22;5.72;;;3.08;;
36745;SDS011;22715;52.182;21.206;2023-05-02T14:29:49;4.32;;;2.75;;
36745;SDS011;22715;52.182;21.206;2023-05-02T14:32:15;4.55;;;3.10;;
36745;SDS011;22715;52.182;21.206;2023-05-02T14:34:40;4.22;;;2.70;;
36745;SDS011;22715;52.182;21.206;2023-05-02T14:37:06;3.20;;;2.40;;
36745;SDS011;22715;52.182;21.206;2023-05-02T14:39:33;5.45;;;2.55;;
36745;SDS011;22715;52.182;21.206;2023-05-02T14:41:58;4.22;;;3.17;;
36745;SDS011;22715;52.182;21.206;2023-05-02T14:44:29;3.72;;;2.25;;
36745;SDS011;22715;52.182;21.206;2023-05-02T14:46:54;6.60;;;3.13;;
36745;SDS011;22715;52.182;21.206;2023-05-02T14:49:22;5.90;;;3.05;;
36745;SDS011;22715;52.182;21.206;2023-05-02T14:51:49;5.00;;;3.03;;
36745;SDS011;22715;52.182;21.206;2023-05-02T14:54:14;4.35;;;3.22;;
36745;SDS011;22715;52.182;21.206;2023-05-02T14:56:41;5.53;;;3.80;;
36745;SDS011;22715;52.182;21.206;2023-05-02T14:59:06;5.93;;;3.35;;
36745;SDS011;22715;52.182;21.206;2023-05-02T15:01:31;4.88;;;3.25;;
36745;SDS011;22715;52.182;21.206;2023-05-02T15:03:56;4.43;;;3.03;;
36745;SDS011;22715;52.182;21.206;2023-05-02T15:06:22;4.15;;;3.15;;
36745;SDS011;22715;52.182;21.206;2023-05-02T15:08:47;4.95;;;2.90;;